sensor_id;sensor_type;location;lat;lon;timestamp;P1;durP1;ratioP1;P2;durP2;ratioP2
73321;SDS011;61549;37.044;22.128;2023-04-28T00:01:48;5.07;;;3.80;;
73321;SDS011;61549;37.044;22.128;2023-04-28T00:04:14;5.97;;;4.15;;
73321;SDS011;61549;37.044;22.128;2023-04-28T00:06:40;5.53;;;3.97;;
73321;SDS011;61549;37.044;22.128;2023-04-28T00:09:06;5.28;;;4.00;;
73321;SDS011;61549;37.044;22.128;2023-04-28T00:11:35;7.72;;;4.28;;
73321;SDS011;61549;37.044;22.128;2023-04-28T00:14:02;4.95;;;3.78;;
73321;SDS011;61549;37.044;22.128;2023-04-28T00:16:28;7.25;;;4.10;;
73321;SDS011;61549;37.044;22.128;2023-04-28T00:18:54;8.38;;;4.22;;
73321;SDS011;61549;37.044;22.128;2023-04-28T00:21:21;6.72;;;4.05;;
73321;SDS011;61549;37.044;22.128;2023-04-28T00:23:47;5.63;;;4.40;;
73321;SDS011;61549;37.044;22.128;2023-04-28T00:26:13;4.43;;;3.95;;
73321;SDS011;61549;37.044;22.128;2023-04-28T00:28:39;5.22;;;4.20;;
73321;SDS011;61549;37.044;22.128;2023-04-28T00:31:11;5.97;;;4.15;;
73321;SDS011;61549;37.044;22.128;2023-04-28T00:33:38;6.68;;;4.15;;
73321;SDS011;61549;37.044;22.128;2023-04-28T00:36:05;6.35;;;3.95;;
73321;SDS011;61549;37.044;22.128;2023-04-28T00:38:31;6.10;;;4.40;;
73321;SDS011;61549;37.044;22.128;2023-04-28T00:40:57;5.28;;;4.00;;
73321;SDS011;61549;37.044;22.128;2023-04-28T00:43:23;6.00;;;4.38;;
73321;SDS011;61549;37.044;22.128;2023-04-28T00:45:49;7.43;;;4.10;;
73321;SDS011;61549;37.044;22.128;2023-04-28T00:48:16;5.80;;;4.18;;
73321;SDS011;61549;37.044;22.128;2023-04-28T00:50:42;5.65;;;3.97;;
73321;SDS011;61549;37.044;22.128;2023-04-28T00:53:10;6.75;;;4.20;;
73321;SDS011;61549;37.044;22.128;2023-04-28T00:55:36;5.05;;;3.83;;
73321;SDS011;61549;37.044;22.128;2023-04-28T00:58:04;6.55;;;3.95;;
73321;SDS011;61549;37.044;22.128;2023-04-28T01:00:30;6.18;;;4.00;;
73321;SDS011;61549;37.044;22.128;2023-04-28T01:02:58;6.07;;;4.30;;
73321;SDS011;61549;37.044;22.128;2023-04-28T01:05:24;7.13;;;4.15;;
73321;SDS011;61549;37.044;22.128;2023-04-28T01:07:51;5.53;;;4.30;;
73321;SDS011;61549;37.044;22.128;2023-04-28T01:10:17;7.63;;;4.28;;
73321;SDS011;61549;37.044;22.128;2023-04-28T01:12:43;6.57;;;4.05;;
73321;SDS011;61549;37.044;22.128;2023-04-28T01:15:09;6.35;;;4.15;;
73321;SDS011;61549;37.044;22.128;2023-04-28T01:17:41;6.10;;;4.30;;
73321;SDS011;61549;37.044;22.128;2023-04-28T01:20:07;6.38;;;3.90;;
73321;SDS011;61549;37.044;22.128;2023-04-28T01:22:33;5.25;;;4.10;;
73321;SDS011;61549;37.044;22.128;2023-04-28T01:24:59;6.28;;;4.07;;
73321;SDS011;61549;37.044;22.128;2023-04-28T01:27:27;6.28;;;4.43;;
73321;SDS011;61549;37.044;22.128;2023-04-28T01:29:53;6.38;;;4.35;;
73321;SDS011;61549;37.044;22.128;2023-04-28T01:32:19;4.80;;;3.92;;
73321;SDS011;61549;37.044;22.128;2023-04-28T01:34:45;6.65;;;4.53;;
73321;SDS011;61549;37.044;22.128;2023-04-28T01:37:11;5.55;;;4.55;;
73321;SDS011;61549;37.044;22.128;2023-04-28T01:39:37;6.22;;;4.47;;
73321;SDS011;61549;37.044;22.128;2023-04-28T01:42:03;8.27;;;4.65;;
73321;SDS011;61549;37.044;22.128;2023-04-28T01:44:29;5.78;;;4.75;;
73321;SDS011;61549;37.044;22.128;2023-04-28T01:46:55;5.18;;;4.25;;
73321;SDS011;61549;37.044;22.128;2023-04-28T01:49:21;5.55;;;4.25;;
73321;SDS011;61549;37.044;22.128;2023-04-28T01:51:48;5.95;;;4.20;;
73321;SDS011;61549;37.044;22.128;2023-04-28T01:54:14;5.35;;;4.15;;
73321;SDS011;61549;37.044;22.128;2023-04-28T01:56:39;5.68;;;4.68;;
73321;SDS011;61549;37.044;22.128;2023-04-28T01:59:05;5.82;;;4.32;;
73321;SDS011;61549;37.044;22.128;2023-04-28T02:01:31;6.40;;;4.57;;
73321;SDS011;61549;37.044;22.128;2023-04-28T02:03:57;5.28;;;4.40;;
73321;SDS011;61549;37.044;22.128;2023-04-28T02:06:23;6.43;;;4.30;;
73321;SDS011;61549;37.044;22.128;2023-04-28T02:08:49;5.32;;;4.30;;
73321;SDS011;61549;37.044;22.128;2023-04-28T02:11:14;5.38;;;4.32;;
73321;SDS011;61549;37.044;22.128;2023-04-28T02:13:40;6.65;;;4.55;;
73321;SDS011;61549;37.044;22.128;2023-04-28T02:16:06;5.57;;;4.28;;
73321;SDS011;61549;37.044;22.128;2023-04-28T02:18:32;6.85;;;4.50;;
73321;SDS011;61549;37.044;22.128;2023-04-28T02:21:09;5.93;;;4.30;;
73321;SDS011;61549;37.044;22.128;2023-04-28T02:23:36;5.50;;;4.90;;
73321;SDS011;61549;37.044;22.128;2023-04-28T02:26:02;6.85;;;4.70;;
73321;SDS011;61549;37.044;22.128;2023-04-28T02:28:28;6.05;;;4.30;;
73321;SDS011;61549;37.044;22.128;2023-04-28T02:31:07;5.78;;;4.60;;
73321;SDS011;61549;37.044;22.128;2023-04-28T02:33:35;7.57;;;4.65;;
73321;SDS011;61549;37.044;22.128;2023-04-28T02:36:02;5.38;;;4.50;;
73321;SDS011;61549;37.044;22.128;2023-04-28T02:38:28;5.88;;;4.53;;
73321;SDS011;61549;37.044;22.128;2023-04-28T02:41:04;7.68;;;4.85;;
73321;SDS011;61549;37.044;22.128;2023-04-28T02:43:33;6.10;;;5.15;;
73321;SDS011;61549;37.044;22.128;2023-04-28T02:46:01;6.13;;;4.78;;
73321;SDS011;61549;37.044;22.128;2023-04-28T02:48:27;5.72;;;4.60;;
73321;SDS011;61549;37.044;22.128;2023-04-28T02:50:53;6.07;;;4.47;;
73321;SDS011;61549;37.044;22.128;2023-04-28T02:53:19;5.35;;;4.45;;
73321;SDS011;61549;37.044;22.128;2023-04-28T02:55:46;5.72;;;4.70;;
73321;SDS011;61549;37.044;22.128;2023-04-28T02:58:12;5.70;;;4.70;;
73321;SDS011;61549;37.044;22.128;2023-04-28T03:00:38;6.43;;;4.55;;
73321;SDS011;61549;37.044;22.128;2023-04-28T03:06:04;6.38;;;4.82;;
73321;SDS011;61549;37.044;22.128;2023-04-28T03:08:30;5.97;;;4.70;;
73321;SDS011;61549;37.044;22.128;2023-04-28T03:14:18;8.13;;;5.03;;
73321;SDS011;61549;37.044;22.128;2023-04-28T03:19:29;6.35;;;5.40;;
73321;SDS011;61549;37.044;22.128;2023-04-28T03:21:57;8.43;;;5.30;;
73321;SDS011;61549;37.044;22.128;2023-04-28T03:24:22;6.35;;;5.35;;
73321;SDS011;61549;37.044;22.128;2023-04-28T03:26:48;7.55;;;5.22;;
73321;SDS011;61549;37.044;22.128;2023-04-28T03:29:14;8.23;;;5.22;;
73321;SDS011;61549;37.044;22.128;2023-04-28T03:31:40;6.50;;;5.20;;
73321;SDS011;61549;37.044;22.128;2023-04-28T03:34:06;7.32;;;4.70;;
73321;SDS011;61549;37.044;22.128;2023-04-28T03:36:32;6.05;;;5.07;;
73321;SDS011;61549;37.044;22.128;2023-04-28T03:38:57;5.78;;;5.18;;
73321;SDS011;61549;37.044;22.128;2023-04-28T03:41:23;7.40;;;5.15;;
73321;SDS011;61549;37.044;22.128;2023-04-28T03:43:49;5.50;;;4.90;;
73321;SDS011;61549;37.044;22.128;2023-04-28T03:46:16;7.05;;;5.18;;
73321;SDS011;61549;37.044;22.128;2023-04-28T03:48:41;8.25;;;5.45;;
73321;SDS011;61549;37.044;22.128;2023-04-28T03:51:07;8.88;;;5.30;;
73321;SDS011;61549;37.044;22.128;2023-04-28T03:53:33;8.82;;;5.07;;
73321;SDS011;61549;37.044;22.128;2023-04-28T03:55:59;8.05;;;5.53;;
73321;SDS011;61549;37.044;22.128;2023-04-28T03:58:25;8.30;;;5.32;;
73321;SDS011;61549;37.044;22.128;2023-04-28T04:00:52;6.95;;;5.43;;
73321;SDS011;61549;37.044;22.128;2023-04-28T04:03:18;7.78;;;5.10;;
73321;SDS011;61549;37.044;22.128;2023-04-28T04:05:45;8.60;;;5.57;;
73321;SDS011;61549;37.044;22.128;2023-04-28T04:08:11;6.65;;;5.28;;
73321;SDS011;61549;37.044;22.128;2023-04-28T04:10:37;8.57;;;4.82;;
73321;SDS011;61549;37.044;22.128;2023-04-28T04:13:03;6.30;;;4.93;;
73321;SDS011;61549;37.044;22.128;2023-04-28T04:15:29;8.45;;;5.68;;
73321;SDS011;61549;37.044;22.128;2023-04-28T04:17:55;6.43;;;4.82;;
73321;SDS011;61549;37.044;22.128;2023-04-28T04:20:21;8.35;;;5.20;;
73321;SDS011;61549;37.044;22.128;2023-04-28T04:22:47;6.53;;;4.85;;
73321;SDS011;61549;37.044;22.128;2023-04-28T04:25:12;6.45;;;5.03;;
73321;SDS011;61549;37.044;22.128;2023-04-28T04:27:38;7.57;;;5.20;;
73321;SDS011;61549;37.044;22.128;2023-04-28T04:30:04;8.05;;;5.15;;
73321;SDS011;61549;37.044;22.128;2023-04-28T04:32:31;6.13;;;4.90;;
73321;SDS011;61549;37.044;22.128;2023-04-28T04:37:34;6.20;;;5.50;;
73321;SDS011;61549;37.044;22.128;2023-04-28T04:39:59;6.22;;;4.97;;
73321;SDS011;61549;37.044;22.128;2023-04-28T04:42:25;7.05;;;5.00;;
73321;SDS011;61549;37.044;22.128;2023-04-28T04:44:51;8.73;;;5.32;;
73321;SDS011;61549;37.044;22.128;2023-04-28T04:47:17;7.18;;;5.05;;
73321;SDS011;61549;37.044;22.128;2023-04-28T04:52:15;7.70;;;5.25;;
73321;SDS011;61549;37.044;22.128;2023-04-28T04:54:41;5.68;;;5.05;;
73321;SDS011;61549;37.044;22.128;2023-04-28T04:57:07;7.22;;;5.13;;
73321;SDS011;61549;37.044;22.128;2023-04-28T04:59:32;8.68;;;5.20;;
73321;SDS011;61549;37.044;22.128;2023-04-28T05:01:58;8.43;;;5.45;;
73321;SDS011;61549;37.044;22.128;2023-04-28T05:04:24;7.50;;;5.25;;
73321;SDS011;61549;37.044;22.128;2023-04-28T05:06:50;6.85;;;5.13;;
73321;SDS011;61549;37.044;22.128;2023-04-28T05:09:16;6.05;;;4.35;;
73321;SDS011;61549;37.044;22.128;2023-04-28T05:11:43;5.82;;;4.60;;
73321;SDS011;61549;37.044;22.128;2023-04-28T05:14:10;10.02;;;4.88;;
73321;SDS011;61549;37.044;22.128;2023-04-28T05:16:36;6.78;;;4.57;;
73321;SDS011;61549;37.044;22.128;2023-04-28T05:19:03;7.07;;;4.38;;
73321;SDS011;61549;37.044;22.128;2023-04-28T05:21:29;6.32;;;4.07;;
73321;SDS011;61549;37.044;22.128;2023-04-28T05:23:55;4.90;;;3.70;;
73321;SDS011;61549;37.044;22.128;2023-04-28T05:26:21;6.47;;;3.95;;
73321;SDS011;61549;37.044;22.128;2023-04-28T05:28:47;7.57;;;3.72;;
73321;SDS011;61549;37.044;22.128;2023-04-28T05:31:14;6.47;;;3.78;;
73321;SDS011;61549;37.044;22.128;2023-04-28T05:36:09;5.57;;;3.97;;
73321;SDS011;61549;37.044;22.128;2023-04-28T05:38:35;5.10;;;3.90;;
73321;SDS011;61549;37.044;22.128;2023-04-28T05:41:01;4.70;;;4.00;;
73321;SDS011;61549;37.044;22.128;2023-04-28T05:43:27;6.65;;;4.10;;
73321;SDS011;61549;37.044;22.128;2023-04-28T05:45:53;6.25;;;3.42;;
73321;SDS011;61549;37.044;22.128;2023-04-28T05:48:19;6.47;;;3.92;;
73321;SDS011;61549;37.044;22.128;2023-04-28T05:50:45;6.05;;;3.50;;
73321;SDS011;61549;37.044;22.128;2023-04-28T05:53:11;8.13;;;4.00;;
73321;SDS011;61549;37.044;22.128;2023-04-28T05:55:37;4.55;;;3.63;;
73321;SDS011;61549;37.044;22.128;2023-04-28T05:58:03;5.32;;;3.72;;
73321;SDS011;61549;37.044;22.128;2023-04-28T06:00:29;6.95;;;3.72;;
73321;SDS011;61549;37.044;22.128;2023-04-28T06:08:26;5.60;;;3.67;;
73321;SDS011;61549;37.044;22.128;2023-04-28T06:10:52;4.75;;;3.78;;
73321;SDS011;61549;37.044;22.128;2023-04-28T06:13:18;5.72;;;4.18;;
73321;SDS011;61549;37.044;22.128;2023-04-28T06:15:44;6.22;;;3.95;;
73321;SDS011;61549;37.044;22.128;2023-04-28T06:18:09;5.63;;;3.35;;
73321;SDS011;61549;37.044;22.128;2023-04-28T06:20:35;5.05;;;3.92;;
73321;SDS011;61549;37.044;22.128;2023-04-28T06:23:01;8.32;;;4.47;;
73321;SDS011;61549;37.044;22.128;2023-04-28T06:25:31;7.38;;;5.28;;
73321;SDS011;61549;37.044;22.128;2023-04-28T06:27:57;8.88;;;4.38;;
73321;SDS011;61549;37.044;22.128;2023-04-28T06:30:40;14.95;;;8.27;;
73321;SDS011;61549;37.044;22.128;2023-04-28T06:33:06;15.73;;;9.38;;
73321;SDS011;61549;37.044;22.128;2023-04-28T06:35:32;13.93;;;8.90;;
73321;SDS011;61549;37.044;22.128;2023-04-28T06:38:04;9.80;;;6.75;;
73321;SDS011;61549;37.044;22.128;2023-04-28T06:40:30;10.93;;;6.72;;
73321;SDS011;61549;37.044;22.128;2023-04-28T06:42:56;10.25;;;5.90;;
73321;SDS011;61549;37.044;22.128;2023-04-28T06:45:22;9.65;;;5.78;;
73321;SDS011;61549;37.044;22.128;2023-04-28T06:47:48;18.38;;;9.43;;
73321;SDS011;61549;37.044;22.128;2023-04-28T06:50:15;10.30;;;6.88;;
73321;SDS011;61549;37.044;22.128;2023-04-28T06:52:41;11.20;;;7.85;;
73321;SDS011;61549;37.044;22.128;2023-04-28T06:55:07;9.05;;;6.28;;
73321;SDS011;61549;37.044;22.128;2023-04-28T06:57:33;10.98;;;7.38;;
73321;SDS011;61549;37.044;22.128;2023-04-28T06:59:59;13.40;;;8.15;;
73321;SDS011;61549;37.044;22.128;2023-04-28T07:02:26;14.23;;;7.32;;
73321;SDS011;61549;37.044;22.128;2023-04-28T07:04:52;11.85;;;7.40;;
73321;SDS011;61549;37.044;22.128;2023-04-28T07:07:17;14.38;;;7.35;;
73321;SDS011;61549;37.044;22.128;2023-04-28T07:12:18;10.68;;;7.20;;
73321;SDS011;61549;37.044;22.128;2023-04-28T07:14:44;12.07;;;7.82;;
73321;SDS011;61549;37.044;22.128;2023-04-28T07:17:11;12.35;;;7.22;;
73321;SDS011;61549;37.044;22.128;2023-04-28T07:19:36;13.40;;;7.88;;
73321;SDS011;61549;37.044;22.128;2023-04-28T07:22:02;12.35;;;7.40;;
73321;SDS011;61549;37.044;22.128;2023-04-28T07:24:28;13.95;;;8.18;;
73321;SDS011;61549;37.044;22.128;2023-04-28T07:26:54;13.45;;;8.15;;
73321;SDS011;61549;37.044;22.128;2023-04-28T07:29:21;15.07;;;8.80;;
73321;SDS011;61549;37.044;22.128;2023-04-28T07:31:47;13.48;;;8.40;;
73321;SDS011;61549;37.044;22.128;2023-04-28T07:34:14;9.82;;;7.50;;
73321;SDS011;61549;37.044;22.128;2023-04-28T07:36:40;12.80;;;8.32;;
73321;SDS011;61549;37.044;22.128;2023-04-28T07:39:06;10.15;;;7.40;;
73321;SDS011;61549;37.044;22.128;2023-04-28T07:41:35;12.40;;;7.43;;
73321;SDS011;61549;37.044;22.128;2023-04-28T07:44:15;12.80;;;7.93;;
73321;SDS011;61549;37.044;22.128;2023-04-28T07:46:41;11.35;;;8.10;;
73321;SDS011;61549;37.044;22.128;2023-04-28T07:49:07;13.07;;;7.40;;
73321;SDS011;61549;37.044;22.128;2023-04-28T07:51:33;13.48;;;7.47;;
73321;SDS011;61549;37.044;22.128;2023-04-28T07:53:59;12.43;;;7.20;;
73321;SDS011;61549;37.044;22.128;2023-04-28T07:56:25;13.50;;;9.13;;
73321;SDS011;61549;37.044;22.128;2023-04-28T07:58:51;9.98;;;7.18;;
73321;SDS011;61549;37.044;22.128;2023-04-28T08:01:17;11.45;;;8.02;;
73321;SDS011;61549;37.044;22.128;2023-04-28T08:03:43;10.88;;;6.30;;
73321;SDS011;61549;37.044;22.128;2023-04-28T08:06:08;11.50;;;6.97;;
73321;SDS011;61549;37.044;22.128;2023-04-28T08:08:34;9.20;;;6.57;;
73321;SDS011;61549;37.044;22.128;2023-04-28T08:11:00;10.02;;;6.50;;
73321;SDS011;61549;37.044;22.128;2023-04-28T08:13:26;10.30;;;6.20;;
73321;SDS011;61549;37.044;22.128;2023-04-28T08:15:53;8.95;;;5.28;;
73321;SDS011;61549;37.044;22.128;2023-04-28T08:18:20;8.07;;;5.30;;
73321;SDS011;61549;37.044;22.128;2023-04-28T08:20:47;9.48;;;5.68;;
73321;SDS011;61549;37.044;22.128;2023-04-28T08:23:13;7.45;;;5.20;;
73321;SDS011;61549;37.044;22.128;2023-04-28T08:25:39;8.13;;;4.95;;
73321;SDS011;61549;37.044;22.128;2023-04-28T08:28:05;7.68;;;5.40;;
73321;SDS011;61549;37.044;22.128;2023-04-28T08:30:32;8.05;;;5.15;;
73321;SDS011;61549;37.044;22.128;2023-04-28T08:32:59;10.32;;;4.85;;
73321;SDS011;61549;37.044;22.128;2023-04-28T08:35:24;8.48;;;5.07;;
73321;SDS011;61549;37.044;22.128;2023-04-28T08:37:51;7.50;;;4.95;;
73321;SDS011;61549;37.044;22.128;2023-04-28T08:40:17;6.25;;;3.83;;
73321;SDS011;61549;37.044;22.128;2023-04-28T08:42:43;7.65;;;4.55;;
73321;SDS011;61549;37.044;22.128;2023-04-28T08:45:13;6.00;;;4.35;;
73321;SDS011;61549;37.044;22.128;2023-04-28T08:47:39;5.20;;;3.78;;
73321;SDS011;61549;37.044;22.128;2023-04-28T08:52:47;7.22;;;4.72;;
73321;SDS011;61549;37.044;22.128;2023-04-28T08:55:19;5.28;;;4.28;;
73321;SDS011;61549;37.044;22.128;2023-04-28T08:57:49;6.55;;;4.20;;
73321;SDS011;61549;37.044;22.128;2023-04-28T09:00:16;8.45;;;4.22;;
73321;SDS011;61549;37.044;22.128;2023-04-28T09:02:42;7.63;;;4.38;;
73321;SDS011;61549;37.044;22.128;2023-04-28T09:05:09;7.18;;;4.50;;
73321;SDS011;61549;37.044;22.128;2023-04-28T09:07:35;6.53;;;4.30;;
73321;SDS011;61549;37.044;22.128;2023-04-28T09:10:20;6.72;;;4.05;;
73321;SDS011;61549;37.044;22.128;2023-04-28T09:12:51;7.82;;;4.40;;
73321;SDS011;61549;37.044;22.128;2023-04-28T09:15:25;7.03;;;4.30;;
73321;SDS011;61549;37.044;22.128;2023-04-28T09:20:48;8.57;;;4.15;;
73321;SDS011;61549;37.044;22.128;2023-04-28T09:23:15;6.55;;;3.92;;
73321;SDS011;61549;37.044;22.128;2023-04-28T09:25:56;6.88;;;3.97;;
73321;SDS011;61549;37.044;22.128;2023-04-28T09:28:24;6.97;;;3.50;;
73321;SDS011;61549;37.044;22.128;2023-04-28T09:30:49;5.03;;;3.35;;
73321;SDS011;61549;37.044;22.128;2023-04-28T09:33:15;4.88;;;3.55;;
73321;SDS011;61549;37.044;22.128;2023-04-28T09:35:42;4.80;;;3.28;;
73321;SDS011;61549;37.044;22.128;2023-04-28T09:38:10;6.68;;;3.67;;
73321;SDS011;61549;37.044;22.128;2023-04-28T09:43:25;6.70;;;3.85;;
73321;SDS011;61549;37.044;22.128;2023-04-28T09:45:53;8.43;;;3.88;;
73321;SDS011;61549;37.044;22.128;2023-04-28T09:48:31;8.18;;;3.70;;
73321;SDS011;61549;37.044;22.128;2023-04-28T09:50:59;6.35;;;3.88;;
73321;SDS011;61549;37.044;22.128;2023-04-28T09:53:26;9.23;;;3.25;;
73321;SDS011;61549;37.044;22.128;2023-04-28T09:55:54;5.32;;;3.60;;
73321;SDS011;61549;37.044;22.128;2023-04-28T09:58:22;7.00;;;4.03;;
73321;SDS011;61549;37.044;22.128;2023-04-28T10:00:50;8.60;;;4.00;;
73321;SDS011;61549;37.044;22.128;2023-04-28T10:03:19;8.50;;;4.10;;
73321;SDS011;61549;37.044;22.128;2023-04-28T10:05:50;7.47;;;4.07;;
73321;SDS011;61549;37.044;22.128;2023-04-28T10:08:20;5.47;;;3.72;;
73321;SDS011;61549;37.044;22.128;2023-04-28T10:10:50;6.97;;;4.10;;
73321;SDS011;61549;37.044;22.128;2023-04-28T10:13:19;5.80;;;4.00;;
73321;SDS011;61549;37.044;22.128;2023-04-28T10:15:46;6.63;;;3.63;;
73321;SDS011;61549;37.044;22.128;2023-04-28T10:18:13;7.07;;;3.92;;
73321;SDS011;61549;37.044;22.128;2023-04-28T10:20:41;9.05;;;3.78;;
73321;SDS011;61549;37.044;22.128;2023-04-28T10:26:11;6.07;;;3.53;;
73321;SDS011;61549;37.044;22.128;2023-04-28T10:28:47;6.95;;;3.92;;
73321;SDS011;61549;37.044;22.128;2023-04-28T10:31:17;7.78;;;4.00;;
73321;SDS011;61549;37.044;22.128;2023-04-28T10:39:17;9.85;;;3.78;;
73321;SDS011;61549;37.044;22.128;2023-04-28T10:41:44;5.35;;;4.10;;
73321;SDS011;61549;37.044;22.128;2023-04-28T10:47:08;6.97;;;4.13;;
73321;SDS011;61549;37.044;22.128;2023-04-28T11:06:25;7.75;;;3.75;;
73321;SDS011;61549;37.044;22.128;2023-04-28T11:14:34;8.18;;;4.45;;
73321;SDS011;61549;37.044;22.128;2023-04-28T11:17:07;10.35;;;4.50;;
73321;SDS011;61549;37.044;22.128;2023-04-28T11:19:42;9.88;;;4.85;;
73321;SDS011;61549;37.044;22.128;2023-04-28T11:22:14;9.55;;;5.65;;
73321;SDS011;61549;37.044;22.128;2023-04-28T11:25:04;10.25;;;5.70;;
73321;SDS011;61549;37.044;22.128;2023-04-28T11:27:38;8.63;;;4.97;;
73321;SDS011;61549;37.044;22.128;2023-04-28T11:30:18;7.88;;;4.80;;
73321;SDS011;61549;37.044;22.128;2023-04-28T11:32:48;8.73;;;4.05;;
73321;SDS011;61549;37.044;22.128;2023-04-28T11:35:14;5.05;;;3.72;;
73321;SDS011;61549;37.044;22.128;2023-04-28T11:37:40;9.82;;;4.28;;
73321;SDS011;61549;37.044;22.128;2023-04-28T11:40:10;4.07;;;3.58;;
73321;SDS011;61549;37.044;22.128;2023-04-28T11:42:45;8.27;;;4.45;;
73321;SDS011;61549;37.044;22.128;2023-04-28T11:45:14;7.53;;;3.22;;
73321;SDS011;61549;37.044;22.128;2023-04-28T11:47:40;4.70;;;3.25;;
73321;SDS011;61549;37.044;22.128;2023-04-28T11:50:06;7.25;;;3.50;;
73321;SDS011;61549;37.044;22.128;2023-04-28T11:52:32;8.57;;;3.20;;
73321;SDS011;61549;37.044;22.128;2023-04-28T11:54:58;5.43;;;3.20;;
73321;SDS011;61549;37.044;22.128;2023-04-28T11:57:26;9.25;;;3.10;;
73321;SDS011;61549;37.044;22.128;2023-04-28T11:59:52;7.35;;;3.53;;
73321;SDS011;61549;37.044;22.128;2023-04-28T12:02:27;6.35;;;3.00;;
73321;SDS011;61549;37.044;22.128;2023-04-28T12:04:53;7.15;;;3.28;;
73321;SDS011;61549;37.044;22.128;2023-04-28T12:07:21;6.97;;;3.08;;
73321;SDS011;61549;37.044;22.128;2023-04-28T12:09:48;7.07;;;3.10;;
73321;SDS011;61549;37.044;22.128;2023-04-28T12:12:37;8.35;;;3.40;;
73321;SDS011;61549;37.044;22.128;2023-04-28T12:15:03;6.47;;;3.35;;
73321;SDS011;61549;37.044;22.128;2023-04-28T12:17:42;7.60;;;2.90;;
73321;SDS011;61549;37.044;22.128;2023-04-28T12:20:09;6.13;;;3.00;;
73321;SDS011;61549;37.044;22.128;2023-04-28T12:22:55;5.05;;;3.00;;
73321;SDS011;61549;37.044;22.128;2023-04-28T12:25:21;6.72;;;2.85;;
73321;SDS011;61549;37.044;22.128;2023-04-28T12:28:00;8.10;;;3.47;;
73321;SDS011;61549;37.044;22.128;2023-04-28T12:30:28;7.93;;;3.25;;
73321;SDS011;61549;37.044;22.128;2023-04-28T12:32:55;6.28;;;3.53;;
73321;SDS011;61549;37.044;22.128;2023-04-28T12:35:22;5.85;;;2.75;;
73321;SDS011;61549;37.044;22.128;2023-04-28T12:37:49;6.60;;;2.90;;
73321;SDS011;61549;37.044;22.128;2023-04-28T12:40:17;8.50;;;3.50;;
73321;SDS011;61549;37.044;22.128;2023-04-28T12:42:43;8.18;;;3.90;;
73321;SDS011;61549;37.044;22.128;2023-04-28T12:45:09;5.82;;;3.70;;
73321;SDS011;61549;37.044;22.128;2023-04-28T12:47:35;8.00;;;3.40;;
73321;SDS011;61549;37.044;22.128;2023-04-28T12:50:02;4.57;;;3.05;;
73321;SDS011;61549;37.044;22.128;2023-04-28T12:52:29;6.60;;;2.83;;
73321;SDS011;61549;37.044;22.128;2023-04-28T12:54:57;7.28;;;3.22;;
73321;SDS011;61549;37.044;22.128;2023-04-28T12:57:24;8.07;;;3.03;;
73321;SDS011;61549;37.044;22.128;2023-04-28T12:59:50;10.63;;;3.10;;
73321;SDS011;61549;37.044;22.128;2023-04-28T13:02:17;4.88;;;3.03;;
73321;SDS011;61549;37.044;22.128;2023-04-28T13:04:49;6.03;;;3.20;;
73321;SDS011;61549;37.044;22.128;2023-04-28T13:07:16;7.93;;;3.10;;
73321;SDS011;61549;37.044;22.128;2023-04-28T13:09:42;7.95;;;2.97;;
73321;SDS011;61549;37.044;22.128;2023-04-28T13:12:08;6.68;;;2.67;;
73321;SDS011;61549;37.044;22.128;2023-04-28T13:14:35;6.82;;;2.70;;
73321;SDS011;61549;37.044;22.128;2023-04-28T13:17:01;7.30;;;3.00;;
73321;SDS011;61549;37.044;22.128;2023-04-28T13:19:27;8.68;;;2.72;;
73321;SDS011;61549;37.044;22.128;2023-04-28T13:21:55;5.53;;;2.50;;
73321;SDS011;61549;37.044;22.128;2023-04-28T13:24:21;9.23;;;2.60;;
73321;SDS011;61549;37.044;22.128;2023-04-28T13:26:47;7.63;;;3.03;;
73321;SDS011;61549;37.044;22.128;2023-04-28T13:29:13;8.65;;;2.85;;
73321;SDS011;61549;37.044;22.128;2023-04-28T13:31:40;9.27;;;2.88;;
73321;SDS011;61549;37.044;22.128;2023-04-28T13:34:05;6.78;;;2.88;;
73321;SDS011;61549;37.044;22.128;2023-04-28T13:36:32;7.55;;;2.95;;
73321;SDS011;61549;37.044;22.128;2023-04-28T13:38:59;8.77;;;2.92;;
73321;SDS011;61549;37.044;22.128;2023-04-28T13:41:25;6.82;;;2.90;;
73321;SDS011;61549;37.044;22.128;2023-04-28T13:43:58;8.77;;;2.80;;
73321;SDS011;61549;37.044;22.128;2023-04-28T13:46:25;8.95;;;3.13;;
73321;SDS011;61549;37.044;22.128;2023-04-28T13:48:52;10.32;;;3.17;;
73321;SDS011;61549;37.044;22.128;2023-04-28T13:51:19;8.13;;;2.78;;
73321;SDS011;61549;37.044;22.128;2023-04-28T13:53:44;9.65;;;2.60;;
73321;SDS011;61549;37.044;22.128;2023-04-28T13:56:10;7.03;;;2.55;;
73321;SDS011;61549;37.044;22.128;2023-04-28T13:58:37;8.70;;;2.53;;
73321;SDS011;61549;37.044;22.128;2023-04-28T14:01:03;6.85;;;2.88;;
73321;SDS011;61549;37.044;22.128;2023-04-28T14:03:29;6.93;;;2.92;;
73321;SDS011;61549;37.044;22.128;2023-04-28T14:05:55;8.98;;;2.75;;
73321;SDS011;61549;37.044;22.128;2023-04-28T14:08:22;8.15;;;2.80;;
73321;SDS011;61549;37.044;22.128;2023-04-28T14:10:49;5.05;;;2.90;;
73321;SDS011;61549;37.044;22.128;2023-04-28T14:13:16;16.17;;;8.98;;
73321;SDS011;61549;37.044;22.128;2023-04-28T14:15:44;10.30;;;5.80;;
73321;SDS011;61549;37.044;22.128;2023-04-28T14:18:11;10.32;;;3.30;;
73321;SDS011;61549;37.044;22.128;2023-04-28T14:20:38;6.88;;;2.63;;
73321;SDS011;61549;37.044;22.128;2023-04-28T14:23:04;6.50;;;2.60;;
73321;SDS011;61549;37.044;22.128;2023-04-28T14:25:30;5.60;;;2.40;;
73321;SDS011;61549;37.044;22.128;2023-04-28T14:27:55;5.28;;;2.25;;
73321;SDS011;61549;37.044;22.128;2023-04-28T14:30:22;5.30;;;2.90;;
73321;SDS011;61549;37.044;22.128;2023-04-28T14:32:50;5.40;;;3.35;;
73321;SDS011;61549;37.044;22.128;2023-04-28T14:35:16;9.15;;;5.47;;
73321;SDS011;61549;37.044;22.128;2023-04-28T14:37:44;8.60;;;4.60;;
73321;SDS011;61549;37.044;22.128;2023-04-28T14:40:11;5.35;;;3.53;;
73321;SDS011;61549;37.044;22.128;2023-04-28T14:42:38;6.25;;;3.30;;
73321;SDS011;61549;37.044;22.128;2023-04-28T14:45:05;7.63;;;3.65;;
73321;SDS011;61549;37.044;22.128;2023-04-28T14:47:33;8.40;;;4.80;;
73321;SDS011;61549;37.044;22.128;2023-04-28T14:50:01;7.43;;;4.55;;
73321;SDS011;61549;37.044;22.128;2023-04-28T14:52:27;7.13;;;3.78;;
73321;SDS011;61549;37.044;22.128;2023-04-28T14:54:54;6.07;;;3.70;;
73321;SDS011;61549;37.044;22.128;2023-04-28T14:57:22;6.18;;;3.70;;
73321;SDS011;61549;37.044;22.128;2023-04-28T14:59:49;4.68;;;3.40;;
73321;SDS011;61549;37.044;22.128;2023-04-28T15:02:16;4.68;;;3.15;;
73321;SDS011;61549;37.044;22.128;2023-04-28T15:04:42;5.38;;;3.30;;
73321;SDS011;61549;37.044;22.128;2023-04-28T15:07:10;6.97;;;3.50;;
73321;SDS011;61549;37.044;22.128;2023-04-28T15:09:36;5.05;;;2.70;;
73321;SDS011;61549;37.044;22.128;2023-04-28T15:12:02;6.22;;;2.83;;
73321;SDS011;61549;37.044;22.128;2023-04-28T15:14:28;6.13;;;3.03;;
73321;SDS011;61549;37.044;22.128;2023-04-28T15:16:54;5.18;;;2.80;;
73321;SDS011;61549;37.044;22.128;2023-04-28T15:19:20;7.38;;;3.70;;
73321;SDS011;61549;37.044;22.128;2023-04-28T15:21:49;6.20;;;3.17;;
73321;SDS011;61549;37.044;22.128;2023-04-28T15:24:16;6.53;;;2.80;;
73321;SDS011;61549;37.044;22.128;2023-04-28T15:26:50;6.13;;;2.72;;
73321;SDS011;61549;37.044;22.128;2023-04-28T15:29:17;3.95;;;2.42;;
73321;SDS011;61549;37.044;22.128;2023-04-28T15:31:43;4.65;;;2.60;;
73321;SDS011;61549;37.044;22.128;2023-04-28T15:34:09;5.22;;;2.60;;
73321;SDS011;61549;37.044;22.128;2023-04-28T15:36:35;3.63;;;2.60;;
73321;SDS011;61549;37.044;22.128;2023-04-28T15:39:06;5.47;;;2.65;;
73321;SDS011;61549;37.044;22.128;2023-04-28T15:41:32;6.60;;;2.80;;